createdAt,value
2022-11-13T00:01:32.691Z,14.26
2022-11-13T00:04:01.098Z,13.46
2022-11-13T00:06:28.268Z,13.50
2022-11-13T00:08:58.482Z,13.06
2022-11-13T00:11:27.728Z,13.44
2022-11-13T00:13:55.586Z,13.98
2022-11-13T00:16:22.772Z,13.61
2022-11-13T00:18:52.940Z,13.47
2022-11-13T00:21:27.354Z,13.69
2022-11-13T00:23:56.962Z,13.65
2022-11-13T00:26:29.597Z,13.26
2022-11-13T00:29:00.610Z,13.53
2022-11-13T00:31:29.192Z,13.66
2022-11-13T00:36:47.175Z,13.44
2022-11-13T00:39:14.751Z,13.49
2022-11-13T00:41:41.778Z,13.44
2022-11-13T00:44:11.918Z,13.56
2022-11-13T00:46:39.186Z,13.75
2022-11-13T00:49:09.392Z,13.95
2022-11-13T00:51:39.211Z,14.34
2022-11-13T00:54:06.385Z,14.36
2022-11-13T00:56:33.574Z,14.82
2022-11-13T00:59:02.691Z,13.87
2022-11-13T01:01:30.447Z,14.01
2022-11-13T01:04:00.465Z,13.05
2022-11-13T01:06:33.207Z,11.82
2022-11-13T01:09:03.152Z,11.21
2022-11-13T01:11:34.413Z,11.79
2022-11-13T01:14:05.438Z,12.35
2022-11-13T01:16:36.856Z,12.60
2022-11-13T01:19:04.586Z,12.37
2022-11-13T01:21:33.397Z,12.47
2022-11-13T01:24:02.596Z,12.40
2022-11-13T01:26:31.467Z,12.51
2022-11-13T01:29:01.774Z,12.77
2022-11-13T01:31:37.549Z,12.39
2022-11-13T01:34:05.600Z,12.89
2022-11-13T01:36:32.651Z,13.53
2022-11-13T01:38:59.810Z,12.29
2022-11-13T01:41:29.970Z,12.63
2022-11-13T01:44:01.992Z,13.32
2022-11-13T01:46:47.271Z,13.29
2022-11-13T01:49:51.134Z,13.08
2022-11-13T01:52:28.948Z,13.16
2022-11-13T01:55:13.422Z,13.29
2022-11-13T01:57:41.548Z,13.38
2022-11-13T02:00:13.904Z,13.43
2022-11-13T02:02:40.995Z,13.52
2022-11-13T02:05:09.372Z,13.33
2022-11-13T02:07:45.989Z,13.61
2022-11-13T02:10:14.468Z,13.58
2022-11-13T02:12:49.595Z,13.94
2022-11-13T02:15:27.741Z,14.53
2022-11-13T02:17:59.487Z,14.35
2022-11-13T02:21:25.386Z,14.09
2022-11-13T02:24:36.784Z,14.87
2022-11-13T02:27:22.245Z,14.09
2022-11-13T02:29:49.453Z,13.93
2022-11-13T02:32:18.393Z,14.18
2022-11-13T02:34:45.469Z,14.01
2022-11-13T02:37:17.157Z,14.51
2022-11-13T02:39:45.142Z,14.44
2022-11-13T02:42:12.117Z,14.36
2022-11-13T02:44:44.252Z,14.22
2022-11-13T02:47:11.683Z,14.26
2022-11-13T02:49:38.753Z,14.79
2022-11-13T02:52:05.977Z,14.19
2022-11-13T02:54:36.500Z,14.30
2022-11-13T02:57:03.759Z,14.47
2022-11-13T02:59:34.306Z,14.50
2022-11-13T03:02:04.357Z,14.36
2022-11-13T03:04:57.281Z,14.47
2022-11-13T03:07:20.652Z,14.71
2022-11-13T03:09:52.892Z,14.50
2022-11-13T03:12:20.023Z,14.79
2022-11-13T03:14:47.651Z,14.75
2022-11-13T03:17:33.937Z,14.87
2022-11-13T03:20:04.762Z,15.08
2022-11-13T03:22:33.408Z,15.25
2022-11-13T03:25:03.833Z,15.57
2022-11-13T03:27:34.594Z,15.34
2022-11-13T03:30:01.688Z,15.50
2022-11-13T03:32:29.333Z,15.15
2022-11-13T03:34:56.632Z,15.45
2022-11-13T03:37:29.160Z,15.46
2022-11-13T03:40:01.997Z,15.34
2022-11-13T03:42:30.160Z,16.21
2022-11-13T03:44:58.615Z,15.30
2022-11-13T03:47:25.758Z,15.41
2022-11-13T03:49:56.135Z,15.14
2022-11-13T03:52:23.271Z,15.01
2022-11-13T03:54:50.378Z,14.94
2022-11-13T03:57:19.657Z,14.93
2022-11-13T03:59:47.036Z,15.04
2022-11-13T04:02:15.154Z,14.67
2022-11-13T04:04:42.332Z,14.82
2022-11-13T04:07:09.608Z,15.49
2022-11-13T04:09:42.151Z,15.21
2022-11-13T04:12:11.597Z,15.36
2022-11-13T04:14:38.714Z,15.46
2022-11-13T04:17:09.385Z,15.07
2022-11-13T04:19:36.867Z,15.29
2022-11-13T04:22:03.998Z,15.02
2022-11-13T04:24:38.680Z,14.81
2022-11-13T04:27:06.089Z,15.09
2022-11-13T04:29:33.084Z,15.18
2022-11-13T04:32:01.016Z,15.14
2022-11-13T04:34:30.769Z,15.84
2022-11-13T04:36:58.272Z,15.47
2022-11-13T04:39:25.384Z,15.87
2022-11-13T04:42:18.245Z,15.73
2022-11-13T04:44:45.222Z,15.49
2022-11-13T04:47:14.749Z,15.32
2022-11-13T04:49:42.374Z,15.07
2022-11-13T04:52:18.086Z,15.40
2022-11-13T04:54:45.379Z,15.02
2022-11-13T04:59:57.898Z,15.59
2022-11-13T05:05:14.471Z,14.99
2022-11-13T05:07:43.770Z,14.74
2022-11-13T05:10:10.975Z,14.71
2022-11-13T05:12:42.218Z,14.88
2022-11-13T05:15:22.047Z,14.84
2022-11-13T05:17:54.493Z,15.20
2022-11-13T05:20:21.724Z,14.97
2022-11-13T05:22:49.415Z,14.81
2022-11-13T05:25:21.869Z,15.06
2022-11-13T05:27:49.001Z,14.92
2022-11-13T05:30:19.069Z,14.81
2022-11-13T05:32:47.316Z,14.65
2022-11-13T05:35:17.909Z,14.85
2022-11-13T05:37:52.985Z,14.95
2022-11-13T05:40:20.082Z,15.08
2022-11-13T05:42:47.207Z,15.13
2022-11-13T05:45:16.449Z,15.08
2022-11-13T05:47:43.796Z,14.66
2022-11-13T05:50:10.934Z,14.41
2022-11-13T05:52:39.104Z,14.81
2022-11-13T05:55:07.167Z,14.70
2022-11-13T05:57:43.336Z,14.36
2022-11-13T06:00:11.295Z,14.59
2022-11-13T06:02:39.694Z,14.36
2022-11-13T06:05:18.529Z,14.24
2022-11-13T06:07:45.811Z,14.93
2022-11-13T06:10:14.991Z,14.69
2022-11-13T06:12:42.193Z,14.89
2022-11-13T06:15:14.861Z,14.65
2022-11-13T06:17:46.802Z,15.03
2022-11-13T06:20:17.379Z,14.61
2022-11-13T06:22:46.763Z,14.45
2022-11-13T06:25:13.876Z,14.45
2022-11-13T06:27:42.988Z,14.52
2022-11-13T06:30:14.310Z,14.12
2022-11-13T06:32:41.348Z,14.15
2022-11-13T06:35:10.916Z,13.89
2022-11-13T06:37:38.040Z,13.71
2022-11-13T06:40:12.087Z,13.77
2022-11-13T06:42:43.798Z,14.13
2022-11-13T06:45:11.893Z,13.89
2022-11-13T06:47:38.977Z,13.69
2022-11-13T06:50:14.576Z,14.22
2022-11-13T06:52:41.629Z,14.41
2022-11-13T06:55:08.909Z,14.37
2022-11-13T06:57:38.971Z,14.49
2022-11-13T07:00:16.349Z,14.55
2022-11-13T07:02:43.495Z,15.15
2022-11-13T07:05:12.099Z,15.93
2022-11-13T07:07:41.362Z,15.84
2022-11-13T07:10:15.063Z,15.14
2022-11-13T07:12:42.024Z,15.40
2022-11-13T07:15:14.240Z,15.48
2022-11-13T07:17:41.414Z,15.50
2022-11-13T07:20:09.204Z,16.16
2022-11-13T07:22:42.006Z,15.40
2022-11-13T07:25:10.564Z,15.99
2022-11-13T07:27:37.670Z,15.93
2022-11-13T07:30:09.680Z,15.56
2022-11-13T07:32:37.303Z,16.24
2022-11-13T07:35:07.438Z,16.40
2022-11-13T07:37:41.418Z,16.17
2022-11-13T07:40:09.516Z,16.57
2022-11-13T07:42:36.667Z,16.26
2022-11-13T07:45:09.687Z,15.79
2022-11-13T07:47:43.545Z,16.11
2022-11-13T07:50:11.340Z,16.17
2022-11-13T07:52:41.567Z,16.21
2022-11-13T07:55:12.090Z,16.63
2022-11-13T07:57:44.556Z,16.86
2022-11-13T08:00:12.487Z,16.74
2022-11-13T08:02:43.395Z,16.61
2022-11-13T08:05:11.897Z,16.67
2022-11-13T08:07:39.107Z,17.08
2022-11-13T08:10:10.159Z,17.24
2022-11-13T08:12:37.943Z,17.16
2022-11-13T08:15:12.213Z,17.31
2022-11-13T08:17:53.040Z,16.90
2022-11-13T08:20:20.598Z,17.80
2022-11-13T08:22:47.715Z,17.22
2022-11-13T08:25:19.955Z,17.49
2022-11-13T08:27:47.678Z,17.48
2022-11-13T08:30:21.771Z,17.47
2022-11-13T08:32:50.073Z,18.58
2022-11-13T08:35:23.999Z,18.65
2022-11-13T08:37:54.113Z,18.81
2022-11-13T08:40:23.940Z,18.45
2022-11-13T08:42:54.123Z,18.63
2022-11-13T08:45:33.105Z,19.35
2022-11-13T08:48:02.493Z,18.97
2022-11-13T08:50:36.608Z,19.39
2022-11-13T08:53:04.485Z,19.52
2022-11-13T08:55:34.291Z,19.37
2022-11-13T08:58:06.540Z,20.08
2022-11-13T09:00:35.260Z,19.39
2022-11-13T09:03:03.208Z,19.94
2022-11-13T09:05:31.847Z,20.19
2022-11-13T09:08:02.849Z,20.40
2022-11-13T09:10:37.892Z,20.54
2022-11-13T09:13:09.048Z,20.43
2022-11-13T09:15:41.003Z,21.25
2022-11-13T09:18:10.678Z,19.84
2022-11-13T09:20:42.102Z,20.90
2022-11-13T09:23:09.796Z,20.70
2022-11-13T09:25:39.981Z,21.08
2022-11-13T09:28:09.976Z,20.58
2022-11-13T09:30:44.992Z,21.45
2022-11-13T09:33:16.172Z,22.12
2022-11-13T09:35:46.768Z,21.94
2022-11-13T09:38:16.323Z,22.30
2022-11-13T09:41:21.882Z,22.49
2022-11-13T09:43:59.846Z,21.45
2022-11-13T09:46:47.388Z,21.34
2022-11-13T09:49:37.400Z,22.08
2022-11-13T09:52:35.356Z,22.36
2022-11-13T09:55:04.610Z,22.28
2022-11-13T09:57:55.366Z,22.98
2022-11-13T10:00:24.717Z,24.12
2022-11-13T10:03:46.654Z,23.35
2022-11-13T10:06:35.821Z,23.00
2022-11-13T10:09:27.602Z,23.49
2022-11-13T10:12:06.281Z,24.17
2022-11-13T10:14:46.265Z,25.33
2022-11-13T10:17:41.942Z,25.93
2022-11-13T10:20:29.833Z,25.13
2022-11-13T10:23:30.092Z,24.49
2022-11-13T10:26:24.701Z,25.71
2022-11-13T10:29:20.629Z,25.95
2022-11-13T10:31:51.881Z,25.54
2022-11-13T10:34:21.781Z,27.74
2022-11-13T10:37:36.195Z,27.63
2022-11-13T10:40:03.757Z,26.50
2022-11-13T10:42:43.272Z,26.80
2022-11-13T10:45:21.392Z,25.97
2022-11-13T10:48:09.470Z,26.31
2022-11-13T10:50:36.992Z,27.37
2022-11-13T10:53:16.336Z,26.81
2022-11-13T10:55:45.622Z,27.79
2022-11-13T10:58:18.980Z,29.18
2022-11-13T11:00:49.878Z,29.12
2022-11-13T11:03:28.006Z,29.53
2022-11-13T11:06:02.038Z,32.21
2022-11-13T11:08:37.611Z,32.04
2022-11-13T11:11:37.707Z,30.62
2022-11-13T11:14:39.408Z,34.36
2022-11-13T11:17:09.561Z,32.27
2022-11-13T11:19:41.906Z,31.77
2022-11-13T11:22:32.527Z,31.69
2022-11-13T11:25:26.290Z,31.72
2022-11-13T11:28:13.267Z,33.64
2022-11-13T11:30:53.306Z,32.89
2022-11-13T11:34:10.298Z,32.01
2022-11-13T11:37:25.543Z,31.42
2022-11-13T11:40:05.604Z,33.10
2022-11-13T11:43:40.942Z,34.90
2022-11-13T11:46:14.470Z,33.52
2022-11-13T11:48:42.960Z,33.27
2022-11-13T11:51:40.063Z,32.63
2022-11-13T11:54:25.524Z,30.92
2022-11-13T11:57:25.220Z,32.65
2022-11-13T12:00:20.623Z,35.13
2022-11-13T12:03:24.508Z,33.55
2022-11-13T12:06:15.797Z,32.87
2022-11-13T12:09:24.847Z,33.37
2022-11-13T12:12:32.558Z,32.16
2022-11-13T12:15:30.390Z,26.62
2022-11-13T12:18:46.734Z,30.20
2022-11-13T12:21:36.294Z,26.98
2022-11-13T12:24:50.219Z,28.88
2022-11-13T12:27:45.871Z,33.52
2022-11-13T12:30:24.804Z,33.79
2022-11-13T12:33:32.170Z,26.52
2022-11-13T12:36:03.196Z,26.66
2022-11-13T12:38:52.454Z,29.90
2022-11-13T12:41:51.234Z,31.53
2022-11-13T12:45:05.731Z,32.36
2022-11-13T12:47:39.334Z,30.06
2022-11-13T12:50:32.765Z,32.31
2022-11-13T12:53:09.813Z,31.86
2022-11-13T12:55:42.422Z,27.77
2022-11-13T12:58:33.202Z,31.34
2022-11-13T13:01:20.840Z,26.36
2022-11-13T13:04:39.119Z,25.59
2022-11-13T13:07:44.228Z,24.22
2022-11-13T13:10:55.405Z,27.31
2022-11-13T13:13:49.691Z,31.12
2022-11-13T13:16:35.193Z,30.91
2022-11-13T13:19:33.964Z,27.49
2022-11-13T13:22:12.427Z,24.36
2022-11-13T13:24:44.515Z,23.34
2022-11-13T13:27:34.278Z,23.42
2022-11-13T13:30:17.539Z,22.91
2022-11-13T13:33:12.903Z,24.13
2022-11-13T13:35:58.056Z,23.28
2022-11-13T13:39:12.694Z,23.27
2022-11-13T13:42:01.444Z,23.59
2022-11-13T13:45:14.567Z,23.65
2022-11-13T13:47:51.853Z,22.71
2022-11-13T13:50:50.731Z,21.67
2022-11-13T13:53:31.924Z,21.47
2022-11-13T13:56:04.766Z,19.91
2022-11-13T13:58:37.699Z,18.64
2022-11-13T14:01:18.835Z,18.51
2022-11-13T14:04:03.731Z,17.00
2022-11-13T14:06:31.306Z,16.09
2022-11-13T14:09:20.385Z,15.82
2022-11-13T14:11:57.018Z,16.26
2022-11-13T14:14:29.153Z,16.59
2022-11-13T14:17:06.476Z,16.29
2022-11-13T14:19:34.361Z,16.14
2022-11-13T14:22:06.578Z,16.05
2022-11-13T14:25:38.051Z,15.94
2022-11-13T14:28:17.493Z,16.07
2022-11-13T14:31:07.084Z,16.18
2022-11-13T14:34:47.858Z,16.16
2022-11-13T14:37:47.328Z,16.02
2022-11-13T14:40:35.809Z,16.17
2022-11-13T14:43:23.794Z,15.71
2022-11-13T14:46:26.843Z,15.82
2022-11-13T14:48:56.988Z,15.47
2022-11-13T14:51:33.558Z,15.17
2022-11-13T14:54:07.811Z,15.30
2022-11-13T14:56:43.244Z,15.13
2022-11-13T14:59:44.917Z,15.17
2022-11-13T15:02:14.513Z,14.92
2022-11-13T15:04:43.391Z,14.80
2022-11-13T15:07:33.859Z,14.53
2022-11-13T15:10:06.314Z,14.55
2022-11-13T15:12:33.661Z,14.52
2022-11-13T15:15:02.538Z,14.53
2022-11-13T15:17:32.019Z,14.19
2022-11-13T15:19:59.702Z,14.38
2022-11-13T15:22:28.860Z,14.58
2022-11-13T15:24:56.437Z,14.67
2022-11-13T15:27:26.716Z,14.44
2022-11-13T15:29:55.593Z,14.71
2022-11-13T15:32:23.526Z,15.55
2022-11-13T15:34:50.987Z,15.10
2022-11-13T15:37:18.293Z,15.30
2022-11-13T15:39:50.196Z,14.98
2022-11-13T15:42:30.012Z,14.74
2022-11-13T15:45:02.508Z,14.92
2022-11-13T15:47:39.508Z,14.56
2022-11-13T15:50:13.903Z,14.75
2022-11-13T15:52:49.532Z,14.44
2022-11-13T15:55:32.569Z,14.95
2022-11-13T15:58:05.418Z,15.27
2022-11-13T16:00:37.324Z,15.52
2022-11-13T16:03:17.721Z,15.80
2022-11-13T16:05:46.552Z,15.78
2022-11-13T16:08:16.380Z,15.40
2022-11-13T16:10:51.649Z,15.38
2022-11-13T16:13:19.822Z,15.42
2022-11-13T16:15:52.654Z,15.48
2022-11-13T16:18:32.525Z,15.72
2022-11-13T16:21:04.209Z,15.79
2022-11-13T16:23:37.321Z,15.56
2022-11-13T16:26:14.845Z,15.51
2022-11-13T16:29:12.016Z,15.70
2022-11-13T16:31:38.135Z,15.33
2022-11-13T16:34:07.005Z,15.19
2022-11-13T16:36:38.055Z,15.89
2022-11-13T16:39:07.222Z,15.14
2022-11-13T16:41:34.891Z,15.09
2022-11-13T16:44:08.062Z,15.39
2022-11-13T16:46:41.824Z,15.24
2022-11-13T16:49:19.876Z,15.87
2022-11-13T16:51:49.309Z,15.53
2022-11-13T16:54:26.698Z,15.55
2022-11-13T16:56:54.955Z,15.43
2022-11-13T16:59:24.730Z,15.37
2022-11-13T17:01:56.135Z,15.09
2022-11-13T17:04:25.745Z,15.23
2022-11-13T17:06:57.796Z,15.16
2022-11-13T17:09:25.370Z,15.13
2022-11-13T17:11:52.652Z,15.36
2022-11-13T17:14:21.883Z,15.68
2022-11-13T17:16:53.720Z,15.21
2022-11-13T17:19:21.397Z,15.77
2022-11-13T17:21:52.646Z,15.04
2022-11-13T17:24:20.992Z,14.40
2022-11-13T17:26:49.842Z,14.74
2022-11-13T17:29:17.167Z,14.69
2022-11-13T17:31:45.938Z,14.82
2022-11-13T17:34:13.227Z,14.75
2022-11-13T17:36:40.899Z,14.84
2022-11-13T17:39:11.673Z,15.09
2022-11-13T17:41:39.538Z,15.27
2022-11-13T17:44:12.628Z,14.81
2022-11-13T17:46:41.369Z,15.90
2022-11-13T17:49:18.549Z,15.20
2022-11-13T17:51:54.402Z,15.56
2022-11-13T17:54:21.709Z,15.30
2022-11-13T17:56:52.712Z,15.56
2022-11-13T17:59:21.870Z,15.17
2022-11-13T18:01:49.382Z,15.74
2022-11-13T18:04:22.967Z,16.01
2022-11-13T18:06:57.479Z,16.37
2022-11-13T18:09:36.003Z,16.18
2022-11-13T18:12:05.743Z,15.63
2022-11-13T18:14:41.057Z,15.61
2022-11-13T18:17:10.972Z,15.52
2022-11-13T18:19:45.065Z,16.59
2022-11-13T18:22:25.030Z,16.22
2022-11-13T18:24:59.005Z,15.94
2022-11-13T18:27:27.830Z,16.80
2022-11-13T18:29:58.278Z,16.89
2022-11-13T18:32:33.373Z,16.78
2022-11-13T18:35:03.294Z,16.71
2022-11-13T18:38:00.205Z,17.04
2022-11-13T18:40:28.756Z,16.74
2022-11-13T18:43:02.957Z,17.05
2022-11-13T18:45:33.319Z,17.03
2022-11-13T18:48:03.887Z,16.75
2022-11-13T18:50:34.365Z,16.90
2022-11-13T18:53:01.895Z,17.06
2022-11-13T18:55:36.757Z,17.25
2022-11-13T18:58:18.128Z,17.07
2022-11-13T19:04:21.063Z,17.25
2022-11-13T19:06:40.685Z,17.15
2022-11-13T19:09:16.595Z,17.20
2022-11-13T19:11:46.684Z,17.33
2022-11-13T19:14:22.277Z,17.24
2022-11-13T19:16:57.799Z,17.02
2022-11-13T19:19:25.224Z,16.88
2022-11-13T19:22:02.380Z,16.66
2022-11-13T19:24:29.624Z,16.63
2022-11-13T19:26:58.731Z,16.90
2022-11-13T19:29:30.171Z,16.63
2022-11-13T19:31:57.569Z,16.24
2022-11-13T19:34:36.679Z,16.44
2022-11-13T19:37:04.838Z,15.92
2022-11-13T19:39:33.933Z,15.23
2022-11-13T19:42:03.810Z,15.41
2022-11-13T19:44:36.748Z,14.97
2022-11-13T19:47:09.568Z,14.93
2022-11-13T19:49:45.556Z,14.66
2022-11-13T19:52:18.150Z,14.90
2022-11-13T19:54:52.558Z,14.49
2022-11-13T19:57:28.298Z,14.45
2022-11-13T19:59:59.276Z,14.13
2022-11-13T20:02:28.327Z,14.29
2022-11-13T20:04:56.866Z,14.36
2022-11-13T20:07:24.355Z,14.34
2022-11-13T20:09:56.903Z,14.33
2022-11-13T20:12:30.623Z,14.42
2022-11-13T20:15:06.785Z,14.27
2022-11-13T20:17:43.296Z,14.37
2022-11-13T20:20:32.803Z,14.26
2022-11-13T20:23:06.375Z,14.38
2022-11-13T20:25:39.572Z,14.32
2022-11-13T20:28:06.836Z,14.67
2022-11-13T20:30:39.331Z,14.90
2022-11-13T20:33:08.699Z,14.77
2022-11-13T20:35:41.798Z,14.81
2022-11-13T20:38:24.687Z,15.12
2022-11-13T20:40:58.323Z,14.99
2022-11-13T20:43:26.734Z,15.37
2022-11-13T20:46:09.563Z,15.36
2022-11-13T20:48:39.045Z,15.55
2022-11-13T20:51:26.668Z,15.75
2022-11-13T20:54:22.324Z,15.78
2022-11-13T20:56:54.339Z,16.27
2022-11-13T20:59:36.676Z,16.08
2022-11-13T21:02:07.162Z,16.42
2022-11-13T21:04:40.796Z,16.42
2022-11-13T21:07:09.164Z,16.59
2022-11-13T21:09:36.450Z,16.79
2022-11-13T21:12:16.499Z,16.18
2022-11-13T21:14:46.728Z,15.32
2022-11-13T21:17:36.428Z,14.93
2022-11-13T21:20:11.666Z,15.72
2022-11-13T21:22:43.103Z,15.84
2022-11-13T21:25:13.348Z,16.24
2022-11-13T21:27:40.881Z,16.32
2022-11-13T21:30:09.013Z,14.68
2022-11-13T21:32:51.911Z,14.77
2022-11-13T21:35:25.448Z,15.01
2022-11-13T21:37:57.606Z,15.88
2022-11-13T21:40:28.709Z,15.50
2022-11-13T21:43:00.163Z,15.79
2022-11-13T21:45:36.308Z,16.14
2022-11-13T21:48:09.128Z,16.33
2022-11-13T21:50:36.319Z,16.36
2022-11-13T21:53:27.116Z,16.66
2022-11-13T21:55:58.519Z,16.68
2022-11-13T21:58:39.293Z,17.08
2022-11-13T22:01:10.766Z,16.90
2022-11-13T22:03:38.449Z,16.87
2022-11-13T22:06:32.232Z,16.96
2022-11-13T22:09:17.411Z,16.86
2022-11-13T22:11:50.142Z,16.20
2022-11-13T22:14:20.006Z,16.27
2022-11-13T22:16:51.220Z,16.08
2022-11-13T22:19:28.367Z,16.17
2022-11-13T22:21:58.298Z,16.18
2022-11-13T22:24:26.537Z,16.53
2022-11-13T22:27:07.050Z,16.31
2022-11-13T22:29:40.390Z,14.81
2022-11-13T22:32:13.130Z,13.73
2022-11-13T22:34:44.139Z,12.98
2022-11-13T22:37:14.938Z,15.11
2022-11-13T22:39:44.090Z,15.61
2022-11-13T22:42:22.175Z,16.14
2022-11-13T22:44:56.119Z,15.77
2022-11-13T22:47:24.060Z,16.39
2022-11-13T22:49:55.448Z,16.49
2022-11-13T22:52:28.473Z,16.32
2022-11-13T22:54:55.640Z,16.31
2022-11-13T22:57:23.264Z,16.73
2022-11-13T22:59:50.648Z,16.24
2022-11-13T23:02:19.153Z,16.25
2022-11-13T23:04:48.075Z,16.74
2022-11-13T23:07:39.487Z,16.83
2022-11-13T23:10:14.932Z,17.16
2022-11-13T23:12:44.074Z,17.19
2022-11-13T23:15:16.900Z,15.60
2022-11-13T23:17:46.532Z,16.75
2022-11-13T23:20:16.570Z,16.42
2022-11-13T23:22:46.283Z,14.79
2022-11-13T23:25:14.491Z,15.26
2022-11-13T23:27:44.696Z,15.41
2022-11-13T23:30:13.730Z,16.15
2022-11-13T23:32:42.122Z,16.33
2022-11-13T23:35:14.243Z,16.61
2022-11-13T23:37:41.876Z,16.70
2022-11-13T23:40:10.134Z,16.61
2022-11-13T23:42:54.327Z,16.89
2022-11-13T23:45:22.853Z,16.54
2022-11-13T23:47:53.152Z,16.74
2022-11-13T23:50:20.997Z,16.12
2022-11-13T23:52:51.317Z,16.43
2022-11-13T23:55:21.493Z,15.58
2022-11-13T23:57:55.380Z,16.13
